createdAt,value
2022-09-10T00:00:06.253Z,100023.50
2022-09-10T00:02:32.626Z,100026.00
2022-09-10T00:05:02.246Z,100019.78
2022-09-10T00:07:28.836Z,100028.78
2022-09-10T00:09:55.135Z,100021.38
2022-09-10T00:12:21.449Z,100010.25
2022-09-10T00:14:47.724Z,100007.69
2022-09-10T00:17:13.977Z,100016.16
2022-09-10T00:19:40.249Z,100006.94
2022-09-10T00:22:06.516Z,100019.72
2022-09-10T00:24:34.421Z,100026.03
2022-09-10T00:27:00.692Z,100017.47
2022-09-10T00:29:27.838Z,100014.88
2022-09-10T00:31:54.861Z,100023.19
2022-09-10T00:34:21.134Z,100015.25
2022-09-10T00:36:47.456Z,100019.78
2022-09-10T00:39:13.737Z,100017.94
2022-09-10T00:41:40.337Z,100020.19
2022-09-10T00:44:06.615Z,100019.72
2022-09-10T00:46:32.863Z,100018.00
2022-09-10T00:48:59.164Z,100018.25
2022-09-10T00:51:26.272Z,100023.34
2022-09-10T00:53:52.465Z,100015.09
2022-09-10T00:56:18.719Z,100028.16
2022-09-10T00:58:45.695Z,100019.19
2022-09-10T01:01:11.969Z,100021.91
2022-09-10T01:03:38.253Z,100020.03
2022-09-10T01:06:04.529Z,100015.19
2022-09-10T01:08:31.281Z,100027.41
2022-09-10T01:10:57.757Z,100022.75
2022-09-10T01:13:24.169Z,100025.91
2022-09-10T01:15:50.432Z,100012.38
2022-09-10T01:18:16.810Z,100015.22
2022-09-10T01:20:43.624Z,100019.28
2022-09-10T01:23:15.718Z,100008.19
2022-09-10T01:25:43.809Z,100013.81
2022-09-10T01:28:10.072Z,100004.84
2022-09-10T01:30:37.121Z,100009.13
2022-09-10T01:33:04.016Z,100016.41
2022-09-10T01:35:30.352Z,100017.84
2022-09-10T01:37:56.613Z,100011.19
2022-09-10T01:40:29.700Z,100020.78
2022-09-10T01:42:56.376Z,100017.28
2022-09-10T01:45:24.298Z,100009.84
2022-09-10T01:47:51.298Z,100012.69
2022-09-10T01:50:17.529Z,100002.06
2022-09-10T01:52:43.829Z,100012.75
2022-09-10T01:55:10.087Z,100016.25
2022-09-10T01:57:36.717Z,100010.59
2022-09-10T02:00:03.065Z,100015.97
2022-09-10T02:02:29.321Z,100018.28
2022-09-10T02:04:55.608Z,100012.56
2022-09-10T02:07:22.525Z,100016.25
2022-09-10T02:09:48.955Z,100016.25
2022-09-10T02:12:15.216Z,100016.41
2022-09-10T02:14:41.467Z,100018.28
2022-09-10T02:17:07.734Z,100019.13
2022-09-10T02:19:33.987Z,100016.91
2022-09-10T02:22:00.942Z,100024.88
2022-09-10T02:24:27.214Z,100021.91
2022-09-10T02:26:54.796Z,100021.59
2022-09-10T02:29:21.051Z,100016.09
2022-09-10T02:31:47.445Z,100017.47
2022-09-10T02:34:15.748Z,100015.22
2022-09-10T02:36:42.019Z,100016.66
2022-09-10T02:39:08.276Z,100017.81
2022-09-10T02:41:34.907Z,100010.69
2022-09-10T02:44:01.840Z,100000.59
2022-09-10T02:46:28.423Z,100012.28
2022-09-10T02:48:55.081Z,100011.09
2022-09-10T02:51:21.357Z,100007.41
2022-09-10T02:53:47.660Z,100011.81
2022-09-10T02:56:13.975Z,100012.28
2022-09-10T02:58:40.316Z,100015.25
2022-09-10T03:01:06.954Z,100016.66
2022-09-10T03:03:33.260Z,100017.69
2022-09-10T03:05:59.511Z,100019.06
2022-09-10T03:08:26.459Z,100014.09
2022-09-10T03:10:52.729Z,100014.38
2022-09-10T03:13:18.998Z,100009.56
2022-09-10T03:15:45.599Z,100016.94
2022-09-10T03:18:12.715Z,100018.38
2022-09-10T03:20:40.306Z,100015.38
2022-09-10T03:23:06.820Z,100013.81
2022-09-10T03:25:33.084Z,100011.25
2022-09-10T03:27:59.815Z,100009.44
2022-09-10T03:30:26.079Z,100005.19
2022-09-10T03:32:54.011Z,100013.69
2022-09-10T03:35:20.314Z,100017.97
2022-09-10T03:37:46.571Z,100005.88
2022-09-10T03:40:12.910Z,100006.16
2022-09-10T03:42:39.203Z,100010.44
2022-09-10T03:45:05.485Z,100016.53
2022-09-10T03:47:31.754Z,100013.16
2022-09-10T03:49:59.688Z,100001.34
2022-09-10T03:52:26.521Z,100003.19
2022-09-10T03:54:52.785Z,100004.59
2022-09-10T03:57:19.061Z,100007.31
2022-09-10T03:59:45.997Z,100015.00
2022-09-10T04:02:12.309Z,100015.13
2022-09-10T04:04:38.572Z,100018.38
2022-09-10T04:07:04.853Z,100013.28
2022-09-10T04:09:32.457Z,100028.34
2022-09-10T04:11:58.870Z,100023.09
2022-09-10T04:14:26.217Z,100027.63
2022-09-10T04:16:52.483Z,100028.03
2022-09-10T04:19:18.744Z,100020.94
2022-09-10T04:21:44.998Z,100023.06
2022-09-10T04:24:11.255Z,100022.34
2022-09-10T04:26:37.527Z,100019.22
2022-09-10T04:29:03.796Z,100024.19
2022-09-10T04:31:30.188Z,100022.88
2022-09-10T04:33:56.533Z,100019.47
2022-09-10T04:36:22.845Z,100027.16
2022-09-10T04:38:49.105Z,100028.00
2022-09-10T04:41:15.700Z,100028.09
2022-09-10T04:43:41.981Z,100026.88
2022-09-10T04:46:08.322Z,100039.97
2022-09-10T04:48:35.008Z,100039.09
2022-09-10T04:51:17.745Z,100038.25
2022-09-10T04:53:44.312Z,100040.53
2022-09-10T04:56:12.513Z,100044.47
2022-09-10T04:58:39.421Z,100039.63
2022-09-10T05:01:05.853Z,100044.66
2022-09-10T05:03:32.271Z,100045.06
2022-09-10T05:05:58.603Z,100046.09
2022-09-10T05:08:24.863Z,100052.34
2022-09-10T05:10:51.476Z,100053.91
2022-09-10T05:13:18.015Z,100055.31
2022-09-10T05:15:44.308Z,100044.66
2022-09-10T05:18:10.918Z,100043.09
2022-09-10T05:20:37.237Z,100041.84
2022-09-10T05:23:03.534Z,100036.19
2022-09-10T05:25:29.814Z,100044.69
2022-09-10T05:27:56.129Z,100044.81
2022-09-10T05:30:22.384Z,100053.09
2022-09-10T05:32:48.645Z,100044.28
2022-09-10T05:35:14.909Z,100043.13
2022-09-10T05:37:41.188Z,100059.63
2022-09-10T05:40:09.149Z,100052.50
2022-09-10T05:42:35.689Z,100045.41
2022-09-10T05:45:02.039Z,100055.91
2022-09-10T05:47:28.314Z,100049.22
2022-09-10T05:49:55.122Z,100051.38
2022-09-10T05:52:21.405Z,100047.09
2022-09-10T05:54:47.667Z,100052.22
2022-09-10T05:57:13.942Z,100040.28
2022-09-10T05:59:40.201Z,100049.09
2022-09-10T06:02:06.603Z,100051.06
2022-09-10T06:04:32.947Z,100049.38
2022-09-10T06:07:01.755Z,100047.94
2022-09-10T06:09:28.488Z,100054.16
2022-09-10T06:11:54.766Z,100053.00
2022-09-10T06:14:21.067Z,100049.53
2022-09-10T06:16:49.324Z,100050.31
2022-09-10T06:19:15.650Z,100054.41
2022-09-10T06:21:41.908Z,100056.38
2022-09-10T06:24:08.525Z,100058.63
2022-09-10T06:26:35.311Z,100060.63
2022-09-10T06:29:01.567Z,100058.09
2022-09-10T06:31:28.412Z,100065.03
2022-09-10T06:33:54.685Z,100061.69
2022-09-10T06:36:20.960Z,100063.16
2022-09-10T06:38:49.299Z,100067.78
2022-09-10T06:41:17.025Z,100064.88
2022-09-10T06:43:43.692Z,100061.25
2022-09-10T06:46:26.854Z,100066.25
2022-09-10T06:49:00.746Z,100053.25
2022-09-10T06:51:27.071Z,100052.78
2022-09-10T06:53:53.348Z,100053.94
2022-09-10T06:56:19.643Z,100052.53
2022-09-10T06:58:45.900Z,100048.25
2022-09-10T07:01:12.225Z,100049.19
2022-09-10T07:03:38.530Z,100048.25
2022-09-10T07:06:04.865Z,100046.16
2022-09-10T07:08:31.355Z,100048.09
2022-09-10T07:10:59.341Z,100045.25
2022-09-10T07:13:27.438Z,100045.69
2022-09-10T07:15:53.770Z,100052.63
2022-09-10T07:18:20.073Z,100038.22
2022-09-10T07:20:46.509Z,100037.84
2022-09-10T07:23:13.164Z,100038.59
2022-09-10T07:25:39.492Z,100035.97
2022-09-10T07:28:06.510Z,100040.75
2022-09-10T07:30:32.749Z,100041.47
2022-09-10T07:32:59.515Z,100035.81
2022-09-10T07:35:25.763Z,100047.78
2022-09-10T07:37:52.036Z,100031.50
2022-09-10T07:40:18.295Z,100033.88
2022-09-10T07:42:47.980Z,100034.22
2022-09-10T07:45:16.167Z,100046.44
2022-09-10T07:47:42.807Z,100050.72
2022-09-10T07:50:09.055Z,100050.53
2022-09-10T07:52:35.322Z,100052.56
2022-09-10T07:55:01.578Z,100058.22
2022-09-10T07:57:28.559Z,100057.19
2022-09-10T07:59:54.842Z,100060.38
2022-09-10T08:02:22.021Z,100059.53
2022-09-10T08:04:48.309Z,100055.28
2022-09-10T08:07:17.145Z,100066.19
2022-09-10T08:09:43.663Z,100062.41
2022-09-10T08:12:09.921Z,100068.56
2022-09-10T08:14:39.327Z,100070.59
2022-09-10T08:17:05.707Z,100058.50
2022-09-10T08:19:34.020Z,100053.94
2022-09-10T08:22:00.302Z,100069.25
2022-09-10T08:24:27.606Z,100063.94
2022-09-10T08:26:54.532Z,100059.63
2022-09-10T08:29:20.715Z,100064.00
2022-09-10T08:31:47.488Z,100068.84
2022-09-10T08:34:13.763Z,100068.66
2022-09-10T08:36:40.034Z,100061.72
2022-09-10T08:39:08.386Z,100060.69
2022-09-10T08:41:35.665Z,100052.91
2022-09-10T08:44:03.271Z,100062.19
2022-09-10T08:46:29.552Z,100059.44
2022-09-10T08:48:55.812Z,100064.50
2022-09-10T08:51:25.152Z,100057.50
2022-09-10T08:53:51.428Z,100062.31
2022-09-10T08:56:17.718Z,100057.66
2022-09-10T08:58:43.986Z,100056.88
2022-09-10T09:01:10.310Z,100059.00
2022-09-10T09:03:36.647Z,100065.56
2022-09-10T09:06:02.914Z,100070.13
2022-09-10T09:08:29.167Z,100064.81
2022-09-10T09:10:55.451Z,100068.75
2022-09-10T09:13:22.165Z,100065.06
2022-09-10T09:15:51.555Z,100069.13
2022-09-10T09:18:17.889Z,100059.94
2022-09-10T09:20:44.804Z,100055.66
2022-09-10T09:23:10.995Z,100064.03
2022-09-10T09:25:37.254Z,100058.56
2022-09-10T09:28:03.540Z,100058.91
2022-09-10T09:30:30.121Z,100051.75
2022-09-10T09:32:56.788Z,100057.06
2022-09-10T09:35:23.751Z,100051.31
2022-09-10T09:37:50.143Z,100052.19
2022-09-10T09:40:16.413Z,100039.91
2022-09-10T09:42:42.679Z,100045.19
2022-09-10T09:45:08.943Z,100039.66
2022-09-10T09:47:35.213Z,100048.41
2022-09-10T09:50:01.474Z,100040.28
2022-09-10T09:52:27.741Z,100032.25
2022-09-10T09:57:42.576Z,100042.13
2022-09-10T10:00:10.690Z,100030.66
2022-09-10T10:02:37.039Z,100029.59
2022-09-10T10:05:03.330Z,100039.06
2022-09-10T10:07:31.581Z,100030.38
2022-09-10T10:09:57.869Z,100034.78
2022-09-10T10:12:24.123Z,100027.94
2022-09-10T10:14:51.331Z,100026.09
2022-09-10T10:17:17.587Z,100021.63
2022-09-10T10:19:44.309Z,100034.59
2022-09-10T10:22:11.517Z,100019.72
2022-09-10T10:24:37.787Z,100012.59
2022-09-10T10:27:04.080Z,100015.13
2022-09-10T10:29:30.346Z,100016.47
2022-09-10T10:31:57.389Z,100010.09
2022-09-10T10:34:23.652Z,100011.59
2022-09-10T10:36:52.204Z,100002.88
2022-09-10T10:39:19.212Z,100005.84
2022-09-10T10:41:45.472Z,100005.94
2022-09-10T10:44:12.600Z,100009.44
2022-09-10T10:46:38.900Z,100011.38
2022-09-10T10:49:05.280Z,100011.06
2022-09-10T10:51:32.012Z,99997.94
2022-09-10T10:53:58.271Z,100006.25
2022-09-10T10:56:25.992Z,99994.97
2022-09-10T10:58:54.427Z,99992.84
2022-09-10T11:01:20.990Z,99991.22
2022-09-10T11:03:48.754Z,99991.97
2022-09-10T11:06:15.012Z,99982.41
2022-09-10T11:08:42.216Z,99981.72
2022-09-10T11:11:08.991Z,99985.97
2022-09-10T11:13:35.261Z,99987.97
2022-09-10T11:16:01.621Z,99988.31
2022-09-10T11:18:28.300Z,99990.38
2022-09-10T11:20:54.581Z,99989.22
2022-09-10T11:23:20.863Z,99986.16
2022-09-10T11:25:47.121Z,99986.50
2022-09-10T11:28:13.400Z,99978.44
2022-09-10T11:30:40.168Z,99975.41
2022-09-10T11:33:09.934Z,99977.88
2022-09-10T11:35:36.850Z,99966.53
2022-09-10T11:38:03.055Z,99964.50
2022-09-10T11:40:29.328Z,99968.72
2022-09-10T11:42:56.254Z,99974.19
2022-09-10T11:45:23.047Z,99959.16
2022-09-10T11:47:49.318Z,99969.00
2022-09-10T11:50:15.606Z,99961.94
2022-09-10T11:52:42.031Z,99973.78
2022-09-10T11:55:08.440Z,99975.72
2022-09-10T11:57:35.080Z,99961.09
2022-09-10T12:00:01.355Z,99967.25
2022-09-10T12:02:27.654Z,99957.81
2022-09-10T12:04:53.957Z,99961.69
2022-09-10T12:07:21.031Z,99961.06
2022-09-10T12:09:47.283Z,99962.78
2022-09-10T12:12:14.040Z,99963.84
2022-09-10T12:14:40.866Z,99977.38
2022-09-10T12:17:08.638Z,99967.59
2022-09-10T12:19:36.034Z,99961.44
2022-09-10T12:22:02.309Z,99953.94
2022-09-10T12:24:29.228Z,99960.63
2022-09-10T12:26:55.456Z,99958.31
2022-09-10T12:29:21.705Z,99960.34
2022-09-10T12:31:48.263Z,99963.75
2022-09-10T12:34:14.531Z,99954.31
2022-09-10T12:36:40.844Z,99951.34
2022-09-10T12:39:07.112Z,99946.03
2022-09-10T12:41:36.049Z,99946.19
2022-09-10T12:44:02.319Z,99945.38
2022-09-10T12:46:28.807Z,99954.50
2022-09-10T12:48:58.907Z,99953.25
2022-09-10T12:51:25.164Z,99946.88
2022-09-10T12:53:51.426Z,99951.41
2022-09-10T12:56:17.685Z,99942.66
2022-09-10T12:58:43.969Z,99939.34
2022-09-10T13:01:10.311Z,99952.66
2022-09-10T13:03:36.704Z,99946.16
2022-09-10T13:06:04.153Z,99940.06
2022-09-10T13:08:30.890Z,99938.84
2022-09-10T13:11:01.123Z,99940.34
2022-09-10T13:13:27.531Z,99939.66
2022-09-10T13:15:53.828Z,99946.06
2022-09-10T13:18:20.121Z,99929.56
2022-09-10T13:20:46.408Z,99921.56
2022-09-10T13:23:12.669Z,99925.06
2022-09-10T13:25:40.379Z,99923.44
2022-09-10T13:28:06.649Z,99922.00
2022-09-10T13:30:32.933Z,99924.72
2022-09-10T13:32:59.197Z,99918.75
2022-09-10T13:35:27.310Z,99910.28
2022-09-10T13:37:53.616Z,99914.31
2022-09-10T13:40:19.879Z,99909.28
2022-09-10T13:42:46.162Z,99912.72
2022-09-10T13:45:13.442Z,99910.72
2022-09-10T13:47:39.732Z,99913.16
2022-09-10T13:50:06.004Z,99909.50
2022-09-10T13:52:32.592Z,99910.75
2022-09-10T13:54:58.865Z,99918.56
2022-09-10T13:57:25.119Z,99914.91
2022-09-10T13:59:51.380Z,99916.06
2022-09-10T14:02:19.710Z,99923.31
2022-09-10T14:04:46.461Z,99916.75
2022-09-10T14:07:13.047Z,99915.91
2022-09-10T14:09:39.381Z,99913.66
2022-09-10T14:12:05.639Z,99912.03
2022-09-10T14:14:32.310Z,99915.44
2022-09-10T14:16:58.609Z,99917.13
2022-09-10T14:19:24.949Z,99914.53
2022-09-10T14:21:54.301Z,99908.00
2022-09-10T14:24:21.293Z,99908.22
2022-09-10T14:26:47.492Z,99906.00
2022-09-10T14:29:13.769Z,99901.25
2022-09-10T14:31:40.437Z,99898.19
2022-09-10T14:34:06.688Z,99895.72
2022-09-10T14:36:35.715Z,99888.84
2022-09-10T14:39:01.986Z,99889.19
2022-09-10T14:41:28.352Z,99888.78
2022-09-10T14:43:55.248Z,99895.28
2022-09-10T14:46:21.462Z,99891.41
2022-09-10T14:48:47.738Z,99897.88
2022-09-10T14:51:14.353Z,99899.44
2022-09-10T14:53:40.742Z,99898.56
2022-09-10T14:56:07.125Z,99908.09
2022-09-10T14:58:33.689Z,99911.28
2022-09-10T15:00:59.950Z,99900.75
2022-09-10T15:03:26.225Z,99904.72
2022-09-10T15:05:52.529Z,99899.53
2022-09-10T15:08:18.805Z,99900.38
2022-09-10T15:10:45.061Z,99906.13
2022-09-10T15:13:11.317Z,99900.59
2022-09-10T15:15:37.610Z,99912.63
2022-09-10T15:18:03.954Z,99916.22
2022-09-10T15:20:31.296Z,99914.47
2022-09-10T15:22:57.595Z,99919.31
2022-09-10T15:25:23.863Z,99916.22
2022-09-10T15:27:50.258Z,99909.72
2022-09-10T15:30:16.520Z,99917.97
2022-09-10T15:32:42.833Z,99924.19
2022-09-10T15:35:09.524Z,99915.53
2022-09-10T15:37:35.787Z,99923.78
2022-09-10T15:40:02.095Z,99931.78
2022-09-10T15:42:28.411Z,99936.44
2022-09-10T15:44:54.683Z,99939.41
2022-09-10T15:47:20.991Z,99938.34
2022-09-10T15:49:47.243Z,99951.66
2022-09-10T15:52:13.532Z,99950.72
2022-09-10T15:54:39.787Z,99949.66
2022-09-10T15:57:06.748Z,99958.03
2022-09-10T15:59:32.935Z,99961.50
2022-09-10T16:01:59.237Z,99961.88
2022-09-10T16:04:25.947Z,99962.00
2022-09-10T16:06:52.208Z,99956.22
2022-09-10T16:09:18.472Z,99966.19
2022-09-10T16:11:45.352Z,99959.50
2022-09-10T16:14:11.792Z,99973.28
2022-09-10T16:16:38.071Z,99967.13
2022-09-10T16:19:04.450Z,99960.56
2022-09-10T16:21:30.950Z,99952.78
2022-09-10T16:23:57.216Z,99946.88
2022-09-10T16:26:23.474Z,99959.25
2022-09-10T16:28:49.741Z,99967.13
2022-09-10T16:31:16.048Z,99964.06
2022-09-10T16:33:42.387Z,99972.19
2022-09-10T16:36:08.649Z,99960.47
2022-09-10T16:38:34.913Z,99960.19
2022-09-10T16:41:01.355Z,99957.88
2022-09-10T16:43:28.507Z,99966.16
2022-09-10T16:45:54.771Z,99964.44
2022-09-10T16:48:21.365Z,99963.97
2022-09-10T16:50:47.645Z,99974.75
2022-09-10T16:53:14.046Z,99974.50
2022-09-10T16:55:40.311Z,99981.19
2022-09-10T16:58:06.603Z,99979.47
2022-09-10T17:00:32.928Z,99975.38
2022-09-10T17:02:59.231Z,99976.50
2022-09-10T17:05:25.504Z,99982.56
2022-09-10T17:07:52.251Z,99979.44
2022-09-10T17:10:20.610Z,99979.16
2022-09-10T17:12:46.869Z,99978.09
2022-09-10T17:15:13.140Z,99975.56
2022-09-10T17:17:39.391Z,99979.16
2022-09-10T17:20:07.213Z,99976.78
2022-09-10T17:22:33.409Z,99979.84
2022-09-10T17:24:59.687Z,99984.63
2022-09-10T17:27:27.624Z,99984.50
2022-09-10T17:29:53.820Z,99980.75
2022-09-10T17:32:20.083Z,99986.94
2022-09-10T17:34:47.302Z,99991.06
2022-09-10T17:37:13.568Z,99986.84
2022-09-10T17:39:39.895Z,99992.16
2022-09-10T17:42:06.159Z,99989.59
2022-09-10T17:44:32.497Z,99987.25
2022-09-10T17:47:01.480Z,99992.00
2022-09-10T17:49:27.764Z,99990.34
2022-09-10T17:51:54.031Z,99992.38
2022-09-10T17:54:20.307Z,99987.66
2022-09-10T17:56:46.571Z,99993.25
2022-09-10T17:59:13.254Z,99985.09
2022-09-10T18:01:39.552Z,99991.53
2022-09-10T18:04:05.863Z,99991.91
2022-09-10T18:06:32.351Z,99993.09
2022-09-10T18:08:59.031Z,99997.53
2022-09-10T18:11:27.021Z,99993.94
2022-09-10T18:13:53.296Z,99998.84
2022-09-10T18:16:21.418Z,99994.63
2022-09-10T18:18:47.684Z,100000.72
2022-09-10T18:21:13.957Z,100006.34
2022-09-10T18:23:41.337Z,100003.47
2022-09-10T18:26:07.687Z,100006.00
2022-09-10T18:28:33.956Z,100013.81
2022-09-10T18:31:00.268Z,100011.44
2022-09-10T18:33:26.620Z,100014.50
2022-09-10T18:35:52.885Z,100009.22
2022-09-10T18:38:19.167Z,100009.56
2022-09-10T18:40:45.459Z,100007.34
2022-09-10T18:43:12.201Z,100005.16
2022-09-10T18:45:38.759Z,100008.69
2022-09-10T18:48:05.023Z,100010.22
2022-09-10T18:50:31.350Z,100016.84
2022-09-10T18:52:58.728Z,100021.41
2022-09-10T18:55:25.003Z,100020.22
2022-09-10T18:57:51.300Z,100023.09
2022-09-10T19:00:17.566Z,100026.81
2022-09-10T19:02:45.957Z,100025.31
2022-09-10T19:05:12.740Z,100024.22
2022-09-10T19:07:39.090Z,100036.75
2022-09-10T19:10:06.855Z,100036.94
2022-09-10T19:12:33.157Z,100036.38
2022-09-10T19:14:59.607Z,100038.75
2022-09-10T19:17:25.859Z,100044.19
2022-09-10T19:19:52.115Z,100042.81
2022-09-10T19:22:18.398Z,100052.97
2022-09-10T19:24:54.654Z,100042.66
2022-09-10T19:27:21.789Z,100038.50
2022-09-10T19:29:49.594Z,100043.25
2022-09-10T19:32:16.979Z,100043.97
2022-09-10T19:34:43.462Z,100049.25
2022-09-10T19:37:09.791Z,100053.31
2022-09-10T19:39:36.107Z,100047.91
2022-09-10T19:42:02.403Z,100047.06
2022-09-10T19:44:28.655Z,100040.25
2022-09-10T19:46:55.266Z,100046.38
2022-09-10T19:49:22.154Z,100051.09
2022-09-10T19:51:48.426Z,100057.06
2022-09-10T19:54:14.699Z,100049.41
2022-09-10T19:56:42.182Z,100050.25
2022-09-10T19:59:08.731Z,100050.25
2022-09-10T20:01:35.561Z,100051.59
2022-09-10T20:04:01.869Z,100046.28
2022-09-10T20:06:28.151Z,100043.72
2022-09-10T20:08:54.468Z,100046.44
2022-09-10T20:11:20.745Z,100036.19
2022-09-10T20:13:47.015Z,100050.41
2022-09-10T20:16:13.329Z,100032.66
2022-09-10T20:18:39.940Z,100035.50
2022-09-10T20:21:06.228Z,100032.06
2022-09-10T20:23:32.491Z,100029.50
2022-09-10T20:25:59.242Z,100035.09
2022-09-10T20:28:25.499Z,100031.22
2022-09-10T20:30:51.782Z,100034.38
2022-09-10T20:33:18.083Z,100034.41
2022-09-10T20:35:44.767Z,100030.22
2022-09-10T20:38:11.019Z,100029.66
2022-09-10T20:40:37.327Z,100032.91
2022-09-10T20:43:03.579Z,100024.56
2022-09-10T20:45:31.084Z,100026.56
2022-09-10T20:47:59.699Z,100017.75
2022-09-10T20:50:27.382Z,100026.00
2022-09-10T20:52:53.636Z,100024.91
2022-09-10T20:55:20.004Z,100031.44
2022-09-10T20:57:46.265Z,100025.94
2022-09-10T21:00:12.710Z,100025.47
2022-09-10T21:02:39.124Z,100025.00
2022-09-10T21:05:06.009Z,100026.81
2022-09-10T21:07:32.279Z,100028.38
2022-09-10T21:09:58.535Z,100029.06
2022-09-10T21:12:24.789Z,100025.81
2022-09-10T21:14:51.103Z,100030.13
2022-09-10T21:17:17.356Z,100021.00
2022-09-10T21:19:43.624Z,100029.22
2022-09-10T21:22:09.879Z,100021.56
2022-09-10T21:24:36.151Z,100021.22
2022-09-10T21:27:03.553Z,100028.50
2022-09-10T21:29:29.861Z,100026.75
2022-09-10T21:31:56.947Z,100024.88
2022-09-10T21:34:23.479Z,100034.06
2022-09-10T21:36:49.740Z,100030.25
2022-09-10T21:39:16.017Z,100031.94
2022-09-10T21:41:42.545Z,100037.38
2022-09-10T21:44:09.142Z,100032.31
2022-09-10T21:46:36.069Z,100033.34
2022-09-10T21:49:03.426Z,100031.94
2022-09-10T21:51:29.687Z,100031.44
2022-09-10T21:53:56.188Z,100032.28
2022-09-10T21:56:22.481Z,100035.69
2022-09-10T21:58:48.735Z,100035.59
2022-09-10T22:01:15.038Z,100044.09
2022-09-10T22:03:41.342Z,100046.53
2022-09-10T22:06:07.592Z,100048.22
2022-09-10T22:08:33.849Z,100049.75
2022-09-10T22:11:00.925Z,100051.94
2022-09-10T22:13:28.388Z,100047.13
2022-09-10T22:15:54.711Z,100054.03
2022-09-10T22:18:20.988Z,100052.16
2022-09-10T22:20:47.246Z,100056.41
2022-09-10T22:23:14.375Z,100059.44
2022-09-10T22:25:41.039Z,100051.47
2022-09-10T22:28:07.302Z,100057.47
2022-09-10T22:30:33.579Z,100057.47
2022-09-10T22:32:59.843Z,100059.03
2022-09-10T22:35:26.430Z,100058.50
2022-09-10T22:37:52.683Z,100067.66
2022-09-10T22:40:18.961Z,100065.00
2022-09-10T22:42:45.241Z,100068.41
2022-09-10T22:45:12.392Z,100067.66
2022-09-10T22:47:38.666Z,100069.97
2022-09-10T22:50:04.936Z,100068.94
2022-09-10T22:52:34.086Z,100069.53
2022-09-10T22:55:00.352Z,100069.81
2022-09-10T22:57:26.615Z,100064.69
2022-09-10T22:59:54.319Z,100069.81
2022-09-10T23:02:20.606Z,100072.41
2022-09-10T23:04:46.859Z,100065.13
2022-09-10T23:07:13.115Z,100076.53
2022-09-10T23:09:39.389Z,100071.31
2022-09-10T23:12:05.659Z,100069.00
2022-09-10T23:14:32.989Z,100075.75
2022-09-10T23:16:59.241Z,100075.31
2022-09-10T23:19:25.557Z,100070.88
2022-09-10T23:21:52.111Z,100076.16
2022-09-10T23:24:18.368Z,100079.00
2022-09-10T23:26:44.624Z,100083.81
2022-09-10T23:29:10.898Z,100078.81
2022-09-10T23:31:37.264Z,100079.22
2022-09-10T23:34:03.554Z,100076.47
2022-09-10T23:36:31.379Z,100078.97
2022-09-10T23:38:57.667Z,100080.41
2022-09-10T23:41:24.117Z,100092.06
2022-09-10T23:43:50.391Z,100090.78
2022-09-10T23:46:16.679Z,100095.66
2022-09-10T23:48:43.012Z,100096.63
2022-09-10T23:51:11.175Z,100096.13
2022-09-10T23:53:37.515Z,100081.56
2022-09-10T23:56:03.808Z,100084.13
2022-09-10T23:58:30.067Z,100086.13
